Sparta, TN (38583)

4:45 AM CDT on April 27, 2017 (GMT -0500)
Paul Golden Rd. | | Change Station

Elev 978 ft 35.98 °N, 85.41 °W | Updated 9 seconds ago

Rain
Rain
62.6 °F
Feels Like 62.6 °F
N
6.9
Wind Variable Wind from South
Gusts 6.9 mph

Today
High -- | Low -- °F
--% Chance of Precip.
Yesterday
High -- | Low -- °F
Precip. -- in
Pressure 29.65 in
Visibility 5.0 miles
Clouds Mostly Cloudy 3100 ft
Mostly Cloudy 4100 ft
Overcast 9000 ft
Dew Point 46 °F
Humidity 55%
Rainfall 0.14 in
Snow Depth Not available.
5:53 AM 7:25 PM
New Moon, 1% visible
METAR KSRB 270935Z AUTO 15007KT 5SM BR BKN031 BKN041 OVC090 17/16 A2965 RMK A01
Pressure 29.65 in
Visibility 5.0 miles
Clouds Mostly Cloudy 3100 ft
Mostly Cloudy 4100 ft
Overcast 9000 ft
Dew Point 46 °F
Humidity 55%
Rainfall 0.14 in
Snow Depth Not available.
5:53 AM 7:25 PM
New Moon, 1% visible
METAR KSRB 270935Z AUTO 15007KT 5SM BR BKN031 BKN041 OVC090 17/16 A2965 RMK A01

Get Severe Weather Alerts

Thanks for signing up!

Be on the lookout for a verification email in your inbox.

You'll start receiving the daily forecast at 8 AM.

×

10-Day Weather Forecast

Almanac

Astronomy

Apr. 27, 2017 Rise Set
Actual Time
Civil Twilight
Nautical Twilight
Astronomical Twilight
Moon
Length of Visible Light
Length of Day
Tomorrow will be .
, % of the Moon is Illuminated

Today's Extremes

State Highs State Lows

Community

WunderPhotos

WunderBlog® & News

Nearby

Air Quality

  Air Quality AQ Index Pollutant
Not available.

Snow Depth

Station Depth Elevation

Earthquake Activity

City Distance Mag. Time & Date
Minimum magnitude displayed is 2.5.

Coastal Water Temperatures

Place Temperature

Stations

Nearby Weather Stations

Station Location Temp. Windchill Dew Point Humidity Wind Precip. Elev Updated Type
                   

Watches & Warnings

There are currently no watches in effect.